sensor_id;sensor_type;location;lat;lon;timestamp;P1;durP1;ratioP1;P2;durP2;ratioP2
54855;SDS011;40748;53.168;5.800;2022-07-18T00:01:29;12.00;;;6.10;;
54855;SDS011;40748;53.168;5.800;2022-07-18T00:03:59;10.90;;;5.80;;
54855;SDS011;40748;53.168;5.800;2022-07-18T00:06:29;10.90;;;5.80;;
54855;SDS011;40748;53.168;5.800;2022-07-18T00:08:59;10.90;;;5.80;;
54855;SDS011;40748;53.168;5.800;2022-07-18T00:11:30;10.90;;;5.80;;
54855;SDS011;40748;53.168;5.800;2022-07-18T00:13:59;13.90;;;6.40;;
54855;SDS011;40748;53.168;5.800;2022-07-18T00:18:59;13.90;;;6.40;;
54855;SDS011;40748;53.168;5.800;2022-07-18T00:21:29;13.90;;;6.40;;
54855;SDS011;40748;53.168;5.800;2022-07-18T00:24:00;12.40;;;6.50;;
54855;SDS011;40748;53.168;5.800;2022-07-18T00:26:29;12.40;;;6.50;;
54855;SDS011;40748;53.168;5.800;2022-07-18T00:28:59;12.40;;;6.50;;
54855;SDS011;40748;53.168;5.800;2022-07-18T00:31:29;12.40;;;6.50;;
54855;SDS011;40748;53.168;5.800;2022-07-18T00:33:59;11.90;;;6.50;;
54855;SDS011;40748;53.168;5.800;2022-07-18T00:36:30;11.90;;;6.50;;
54855;SDS011;40748;53.168;5.800;2022-07-18T00:41:29;11.90;;;6.50;;
54855;SDS011;40748;53.168;5.800;2022-07-18T00:44:00;11.30;;;6.90;;
54855;SDS011;40748;53.168;5.800;2022-07-18T00:46:29;11.30;;;6.90;;
54855;SDS011;40748;53.168;5.800;2022-07-18T00:51:29;11.30;;;6.90;;
54855;SDS011;40748;53.168;5.800;2022-07-18T00:53:59;11.10;;;6.80;;
54855;SDS011;40748;53.168;5.800;2022-07-18T00:59:00;11.10;;;6.80;;
54855;SDS011;40748;53.168;5.800;2022-07-18T01:01:29;11.10;;;6.80;;
54855;SDS011;40748;53.168;5.800;2022-07-18T01:04:00;9.90;;;6.80;;
54855;SDS011;40748;53.168;5.800;2022-07-18T01:08:59;9.90;;;6.80;;
54855;SDS011;40748;53.168;5.800;2022-07-18T01:11:29;9.90;;;6.80;;
54855;SDS011;40748;53.168;5.800;2022-07-18T01:14:00;11.10;;;6.90;;
54855;SDS011;40748;53.168;5.800;2022-07-18T01:16:30;11.10;;;6.90;;
54855;SDS011;40748;53.168;5.800;2022-07-18T01:19:00;11.10;;;6.90;;
54855;SDS011;40748;53.168;5.800;2022-07-18T01:21:30;11.10;;;6.90;;
54855;SDS011;40748;53.168;5.800;2022-07-18T01:24:00;10.50;;;6.70;;
54855;SDS011;40748;53.168;5.800;2022-07-18T01:28:59;10.50;;;6.70;;
54855;SDS011;40748;53.168;5.800;2022-07-18T01:31:30;10.50;;;6.70;;
54855;SDS011;40748;53.168;5.800;2022-07-18T01:34:00;15.70;;;8.00;;
54855;SDS011;40748;53.168;5.800;2022-07-18T01:36:29;15.70;;;8.00;;
54855;SDS011;40748;53.168;5.800;2022-07-18T01:38:59;15.70;;;8.00;;
54855;SDS011;40748;53.168;5.800;2022-07-18T01:41:30;15.70;;;8.00;;
54855;SDS011;40748;53.168;5.800;2022-07-18T01:43:59;17.20;;;8.90;;
54855;SDS011;40748;53.168;5.800;2022-07-18T01:46:29;17.20;;;8.90;;
54855;SDS011;40748;53.168;5.800;2022-07-18T01:48:59;17.20;;;8.90;;
54855;SDS011;40748;53.168;5.800;2022-07-18T01:51:29;17.20;;;8.90;;
54855;SDS011;40748;53.168;5.800;2022-07-18T01:53:59;14.50;;;9.40;;
54855;SDS011;40748;53.168;5.800;2022-07-18T01:56:29;14.50;;;9.40;;
54855;SDS011;40748;53.168;5.800;2022-07-18T01:59:01;14.50;;;9.40;;
54855;SDS011;40748;53.168;5.800;2022-07-18T02:01:30;14.50;;;9.40;;
54855;SDS011;40748;53.168;5.800;2022-07-18T02:03:59;14.30;;;9.00;;
54855;SDS011;40748;53.168;5.800;2022-07-18T02:06:29;14.30;;;9.00;;
54855;SDS011;40748;53.168;5.800;2022-07-18T02:08:59;14.30;;;9.00;;
54855;SDS011;40748;53.168;5.800;2022-07-18T02:11:29;14.30;;;9.00;;
54855;SDS011;40748;53.168;5.800;2022-07-18T02:14:00;14.60;;;9.30;;
54855;SDS011;40748;53.168;5.800;2022-07-18T02:18:59;14.60;;;9.30;;
54855;SDS011;40748;53.168;5.800;2022-07-18T02:21:29;14.60;;;9.30;;
54855;SDS011;40748;53.168;5.800;2022-07-18T02:23:59;14.90;;;9.10;;
54855;SDS011;40748;53.168;5.800;2022-07-18T02:28:59;14.90;;;9.10;;
54855;SDS011;40748;53.168;5.800;2022-07-18T02:31:29;14.90;;;9.10;;
54855;SDS011;40748;53.168;5.800;2022-07-18T02:33:59;15.90;;;10.20;;
54855;SDS011;40748;53.168;5.800;2022-07-18T02:36:29;15.90;;;10.20;;
54855;SDS011;40748;53.168;5.800;2022-07-18T02:38:59;15.90;;;10.20;;
54855;SDS011;40748;53.168;5.800;2022-07-18T02:41:30;15.90;;;10.20;;
54855;SDS011;40748;53.168;5.800;2022-07-18T02:43:59;15.60;;;9.90;;
54855;SDS011;40748;53.168;5.800;2022-07-18T02:46:30;15.60;;;9.90;;
54855;SDS011;40748;53.168;5.800;2022-07-18T02:48:59;15.60;;;9.90;;
54855;SDS011;40748;53.168;5.800;2022-07-18T02:51:29;15.60;;;9.90;;
54855;SDS011;40748;53.168;5.800;2022-07-18T02:54:00;15.90;;;9.20;;
54855;SDS011;40748;53.168;5.800;2022-07-18T03:01:29;15.90;;;9.20;;
54855;SDS011;40748;53.168;5.800;2022-07-18T03:03:59;13.80;;;9.20;;
54855;SDS011;40748;53.168;5.800;2022-07-18T03:06:29;13.80;;;9.20;;
54855;SDS011;40748;53.168;5.800;2022-07-18T03:08:59;13.80;;;9.20;;
54855;SDS011;40748;53.168;5.800;2022-07-18T03:11:29;13.80;;;9.20;;
54855;SDS011;40748;53.168;5.800;2022-07-18T03:14:00;15.90;;;9.20;;
54855;SDS011;40748;53.168;5.800;2022-07-18T03:16:29;15.90;;;9.20;;
54855;SDS011;40748;53.168;5.800;2022-07-18T03:18:59;15.90;;;9.20;;
54855;SDS011;40748;53.168;5.800;2022-07-18T03:23:59;16.20;;;9.20;;
54855;SDS011;40748;53.168;5.800;2022-07-18T03:26:30;16.20;;;9.20;;
54855;SDS011;40748;53.168;5.800;2022-07-18T03:28:59;16.20;;;9.20;;
54855;SDS011;40748;53.168;5.800;2022-07-18T03:31:29;16.20;;;9.20;;
54855;SDS011;40748;53.168;5.800;2022-07-18T03:33:59;17.30;;;9.20;;
54855;SDS011;40748;53.168;5.800;2022-07-18T03:36:29;17.30;;;9.20;;
54855;SDS011;40748;53.168;5.800;2022-07-18T03:38:59;17.30;;;9.20;;
54855;SDS011;40748;53.168;5.800;2022-07-18T03:41:29;17.30;;;9.20;;
54855;SDS011;40748;53.168;5.800;2022-07-18T03:44:00;15.60;;;8.60;;
54855;SDS011;40748;53.168;5.800;2022-07-18T03:48:59;15.60;;;8.60;;
54855;SDS011;40748;53.168;5.800;2022-07-18T03:51:29;15.60;;;8.60;;
54855;SDS011;40748;53.168;5.800;2022-07-18T03:53:59;15.90;;;8.20;;
54855;SDS011;40748;53.168;5.800;2022-07-18T03:56:29;15.90;;;8.20;;
54855;SDS011;40748;53.168;5.800;2022-07-18T03:58:59;15.90;;;8.20;;
54855;SDS011;40748;53.168;5.800;2022-07-18T04:01:29;15.90;;;8.20;;
54855;SDS011;40748;53.168;5.800;2022-07-18T04:03:59;15.20;;;8.00;;
54855;SDS011;40748;53.168;5.800;2022-07-18T04:06:29;15.20;;;8.00;;
54855;SDS011;40748;53.168;5.800;2022-07-18T04:08:59;15.20;;;8.00;;
54855;SDS011;40748;53.168;5.800;2022-07-18T04:11:29;15.20;;;8.00;;
54855;SDS011;40748;53.168;5.800;2022-07-18T04:16:29;16.40;;;8.30;;
54855;SDS011;40748;53.168;5.800;2022-07-18T04:18:59;16.40;;;8.30;;
54855;SDS011;40748;53.168;5.800;2022-07-18T04:21:30;16.40;;;8.30;;
54855;SDS011;40748;53.168;5.800;2022-07-18T04:23:59;14.20;;;8.60;;
54855;SDS011;40748;53.168;5.800;2022-07-18T04:26:29;14.20;;;8.60;;
54855;SDS011;40748;53.168;5.800;2022-07-18T04:28:59;14.20;;;8.60;;
54855;SDS011;40748;53.168;5.800;2022-07-18T04:31:29;14.20;;;8.60;;
54855;SDS011;40748;53.168;5.800;2022-07-18T04:33:59;14.70;;;9.10;;
54855;SDS011;40748;53.168;5.800;2022-07-18T04:36:30;14.70;;;9.10;;
54855;SDS011;40748;53.168;5.800;2022-07-18T04:38:59;14.70;;;9.10;;
54855;SDS011;40748;53.168;5.800;2022-07-18T04:41:29;14.70;;;9.10;;
54855;SDS011;40748;53.168;5.800;2022-07-18T04:43:59;15.00;;;8.20;;
54855;SDS011;40748;53.168;5.800;2022-07-18T04:46:30;15.00;;;8.20;;
54855;SDS011;40748;53.168;5.800;2022-07-18T04:49:00;15.00;;;8.20;;
54855;SDS011;40748;53.168;5.800;2022-07-18T04:51:29;15.00;;;8.20;;
54855;SDS011;40748;53.168;5.800;2022-07-18T04:53:59;15.00;;;8.90;;
54855;SDS011;40748;53.168;5.800;2022-07-18T04:56:29;15.00;;;8.90;;
54855;SDS011;40748;53.168;5.800;2022-07-18T04:58:59;15.00;;;8.90;;
54855;SDS011;40748;53.168;5.800;2022-07-18T05:01:30;15.00;;;8.90;;
54855;SDS011;40748;53.168;5.800;2022-07-18T05:03:59;16.60;;;8.50;;
54855;SDS011;40748;53.168;5.800;2022-07-18T05:06:30;16.60;;;8.50;;
54855;SDS011;40748;53.168;5.800;2022-07-18T05:08:59;16.60;;;8.50;;
54855;SDS011;40748;53.168;5.800;2022-07-18T05:11:29;16.60;;;8.50;;
54855;SDS011;40748;53.168;5.800;2022-07-18T05:13:59;15.00;;;9.00;;
54855;SDS011;40748;53.168;5.800;2022-07-18T05:16:29;15.00;;;9.00;;
54855;SDS011;40748;53.168;5.800;2022-07-18T05:18:59;15.00;;;9.00;;
54855;SDS011;40748;53.168;5.800;2022-07-18T05:21:31;15.00;;;9.00;;
54855;SDS011;40748;53.168;5.800;2022-07-18T05:23:59;14.90;;;8.40;;
54855;SDS011;40748;53.168;5.800;2022-07-18T05:26:30;14.90;;;8.40;;
54855;SDS011;40748;53.168;5.800;2022-07-18T05:28:59;14.90;;;8.40;;
54855;SDS011;40748;53.168;5.800;2022-07-18T05:31:29;14.90;;;8.40;;
54855;SDS011;40748;53.168;5.800;2022-07-18T05:33:59;15.20;;;8.10;;
54855;SDS011;40748;53.168;5.800;2022-07-18T05:36:29;15.20;;;8.10;;
54855;SDS011;40748;53.168;5.800;2022-07-18T05:39:00;15.20;;;8.10;;
54855;SDS011;40748;53.168;5.800;2022-07-18T05:41:29;15.20;;;8.10;;
54855;SDS011;40748;53.168;5.800;2022-07-18T05:43:59;13.70;;;7.60;;
54855;SDS011;40748;53.168;5.800;2022-07-18T05:46:30;13.70;;;7.60;;
54855;SDS011;40748;53.168;5.800;2022-07-18T05:48:59;13.70;;;7.60;;
54855;SDS011;40748;53.168;5.800;2022-07-18T05:51:30;13.70;;;7.60;;
54855;SDS011;40748;53.168;5.800;2022-07-18T05:53:59;14.50;;;6.50;;
54855;SDS011;40748;53.168;5.800;2022-07-18T05:56:30;14.50;;;6.50;;
54855;SDS011;40748;53.168;5.800;2022-07-18T05:58:59;14.50;;;6.50;;
54855;SDS011;40748;53.168;5.800;2022-07-18T06:01:30;14.50;;;6.50;;
54855;SDS011;40748;53.168;5.800;2022-07-18T06:04:00;12.80;;;6.00;;
54855;SDS011;40748;53.168;5.800;2022-07-18T06:06:29;12.80;;;6.00;;
54855;SDS011;40748;53.168;5.800;2022-07-18T06:08:59;12.80;;;6.00;;
54855;SDS011;40748;53.168;5.800;2022-07-18T06:11:30;12.80;;;6.00;;
54855;SDS011;40748;53.168;5.800;2022-07-18T06:14:00;13.40;;;5.80;;
54855;SDS011;40748;53.168;5.800;2022-07-18T06:16:30;13.40;;;5.80;;
54855;SDS011;40748;53.168;5.800;2022-07-18T06:19:00;13.40;;;5.80;;
54855;SDS011;40748;53.168;5.800;2022-07-18T06:21:29;13.40;;;5.80;;
54855;SDS011;40748;53.168;5.800;2022-07-18T06:23:59;11.10;;;6.00;;
54855;SDS011;40748;53.168;5.800;2022-07-18T06:26:29;11.10;;;6.00;;
54855;SDS011;40748;53.168;5.800;2022-07-18T06:29:00;11.10;;;6.00;;
54855;SDS011;40748;53.168;5.800;2022-07-18T06:31:29;11.10;;;6.00;;
54855;SDS011;40748;53.168;5.800;2022-07-18T06:33:59;11.60;;;6.00;;
54855;SDS011;40748;53.168;5.800;2022-07-18T06:36:29;11.60;;;6.00;;
54855;SDS011;40748;53.168;5.800;2022-07-18T06:38:59;11.60;;;6.00;;
54855;SDS011;40748;53.168;5.800;2022-07-18T06:41:30;11.60;;;6.00;;
54855;SDS011;40748;53.168;5.800;2022-07-18T06:43:59;10.20;;;5.70;;
54855;SDS011;40748;53.168;5.800;2022-07-18T06:46:29;10.20;;;5.70;;
54855;SDS011;40748;53.168;5.800;2022-07-18T06:48:59;10.20;;;5.70;;
54855;SDS011;40748;53.168;5.800;2022-07-18T06:51:30;10.20;;;5.70;;
54855;SDS011;40748;53.168;5.800;2022-07-18T06:54:00;11.30;;;5.40;;
54855;SDS011;40748;53.168;5.800;2022-07-18T06:56:30;11.30;;;5.40;;
54855;SDS011;40748;53.168;5.800;2022-07-18T06:58:59;11.30;;;5.40;;
54855;SDS011;40748;53.168;5.800;2022-07-18T07:01:30;11.30;;;5.40;;
54855;SDS011;40748;53.168;5.800;2022-07-18T07:04:00;12.00;;;5.50;;
54855;SDS011;40748;53.168;5.800;2022-07-18T07:06:29;12.00;;;5.50;;
54855;SDS011;40748;53.168;5.800;2022-07-18T07:11:30;12.00;;;5.50;;
54855;SDS011;40748;53.168;5.800;2022-07-18T07:13:59;8.50;;;4.60;;
54855;SDS011;40748;53.168;5.800;2022-07-18T07:16:29;8.50;;;4.60;;
54855;SDS011;40748;53.168;5.800;2022-07-18T07:19:00;8.50;;;4.60;;
54855;SDS011;40748;53.168;5.800;2022-07-18T07:21:29;8.50;;;4.60;;
54855;SDS011;40748;53.168;5.800;2022-07-18T07:23:59;11.70;;;5.10;;
54855;SDS011;40748;53.168;5.800;2022-07-18T07:26:30;11.70;;;5.10;;
54855;SDS011;40748;53.168;5.800;2022-07-18T07:29:00;11.70;;;5.10;;
54855;SDS011;40748;53.168;5.800;2022-07-18T07:31:30;11.70;;;5.10;;
54855;SDS011;40748;53.168;5.800;2022-07-18T07:33:59;9.20;;;4.30;;
54855;SDS011;40748;53.168;5.800;2022-07-18T07:36:29;9.20;;;4.30;;
54855;SDS011;40748;53.168;5.800;2022-07-18T07:39:00;9.20;;;4.30;;
54855;SDS011;40748;53.168;5.800;2022-07-18T07:41:30;9.20;;;4.30;;
54855;SDS011;40748;53.168;5.800;2022-07-18T07:43:59;11.00;;;4.30;;
54855;SDS011;40748;53.168;5.800;2022-07-18T07:46:29;11.00;;;4.30;;
54855;SDS011;40748;53.168;5.800;2022-07-18T07:48:59;11.00;;;4.30;;
54855;SDS011;40748;53.168;5.800;2022-07-18T07:51:29;11.00;;;4.30;;
54855;SDS011;40748;53.168;5.800;2022-07-18T07:53:59;9.90;;;3.90;;
54855;SDS011;40748;53.168;5.800;2022-07-18T07:56:29;9.90;;;3.90;;
54855;SDS011;40748;53.168;5.800;2022-07-18T07:58:59;9.90;;;3.90;;
54855;SDS011;40748;53.168;5.800;2022-07-18T08:01:29;9.90;;;3.90;;
54855;SDS011;40748;53.168;5.800;2022-07-18T08:03:59;10.40;;;4.00;;
54855;SDS011;40748;53.168;5.800;2022-07-18T08:06:30;10.40;;;4.00;;
54855;SDS011;40748;53.168;5.800;2022-07-18T08:08:59;10.40;;;4.00;;
54855;SDS011;40748;53.168;5.800;2022-07-18T08:11:29;10.40;;;4.00;;
54855;SDS011;40748;53.168;5.800;2022-07-18T08:13:59;8.30;;;3.30;;
54855;SDS011;40748;53.168;5.800;2022-07-18T08:16:29;8.30;;;3.30;;
54855;SDS011;40748;53.168;5.800;2022-07-18T08:19:00;8.30;;;3.30;;
54855;SDS011;40748;53.168;5.800;2022-07-18T08:21:29;8.30;;;3.30;;
54855;SDS011;40748;53.168;5.800;2022-07-18T08:23:59;8.50;;;2.70;;
54855;SDS011;40748;53.168;5.800;2022-07-18T08:26:29;8.50;;;2.70;;
54855;SDS011;40748;53.168;5.800;2022-07-18T08:28:59;8.50;;;2.70;;
54855;SDS011;40748;53.168;5.800;2022-07-18T08:31:30;8.50;;;2.70;;
54855;SDS011;40748;53.168;5.800;2022-07-18T08:34:00;8.40;;;2.60;;
54855;SDS011;40748;53.168;5.800;2022-07-18T08:36:30;8.40;;;2.60;;
54855;SDS011;40748;53.168;5.800;2022-07-18T08:38:59;8.40;;;2.60;;
54855;SDS011;40748;53.168;5.800;2022-07-18T08:41:30;8.40;;;2.60;;
54855;SDS011;40748;53.168;5.800;2022-07-18T08:44:00;6.70;;;2.40;;
54855;SDS011;40748;53.168;5.800;2022-07-18T08:46:30;6.70;;;2.40;;
54855;SDS011;40748;53.168;5.800;2022-07-18T08:49:00;6.70;;;2.40;;
54855;SDS011;40748;53.168;5.800;2022-07-18T08:51:30;6.70;;;2.40;;
54855;SDS011;40748;53.168;5.800;2022-07-18T08:54:00;11.10;;;3.40;;
54855;SDS011;40748;53.168;5.800;2022-07-18T08:56:30;11.10;;;3.40;;
54855;SDS011;40748;53.168;5.800;2022-07-18T08:59:00;11.10;;;3.40;;
54855;SDS011;40748;53.168;5.800;2022-07-18T09:01:30;11.10;;;3.40;;
54855;SDS011;40748;53.168;5.800;2022-07-18T09:03:59;10.90;;;2.70;;
54855;SDS011;40748;53.168;5.800;2022-07-18T09:06:41;10.90;;;2.70;;
54855;SDS011;40748;53.168;5.800;2022-07-18T09:09:01;10.90;;;2.70;;
54855;SDS011;40748;53.168;5.800;2022-07-18T09:11:29;10.90;;;2.70;;
54855;SDS011;40748;53.168;5.800;2022-07-18T09:13:59;8.20;;;2.60;;
54855;SDS011;40748;53.168;5.800;2022-07-18T09:16:30;8.20;;;2.60;;
54855;SDS011;40748;53.168;5.800;2022-07-18T09:19:05;8.20;;;2.60;;
54855;SDS011;40748;53.168;5.800;2022-07-18T09:21:36;8.20;;;2.60;;
54855;SDS011;40748;53.168;5.800;2022-07-18T09:23:59;7.60;;;2.40;;
54855;SDS011;40748;53.168;5.800;2022-07-18T09:26:37;7.60;;;2.40;;
54855;SDS011;40748;53.168;5.800;2022-07-18T09:28:59;7.60;;;2.40;;
54855;SDS011;40748;53.168;5.800;2022-07-18T09:31:30;7.60;;;2.40;;
54855;SDS011;40748;53.168;5.800;2022-07-18T09:34:02;7.90;;;2.10;;
54855;SDS011;40748;53.168;5.800;2022-07-18T09:36:29;7.90;;;2.10;;
54855;SDS011;40748;53.168;5.800;2022-07-18T09:41:30;7.90;;;2.10;;
54855;SDS011;40748;53.168;5.800;2022-07-18T09:44:13;6.90;;;2.20;;
54855;SDS011;40748;53.168;5.800;2022-07-18T09:46:29;6.90;;;2.20;;
54855;SDS011;40748;53.168;5.800;2022-07-18T09:49:09;6.90;;;2.20;;
54855;SDS011;40748;53.168;5.800;2022-07-18T09:51:29;6.90;;;2.20;;
54855;SDS011;40748;53.168;5.800;2022-07-18T09:56:30;12.00;;;2.50;;
54855;SDS011;40748;53.168;5.800;2022-07-18T09:59:00;12.00;;;2.50;;
54855;SDS011;40748;53.168;5.800;2022-07-18T10:01:30;12.00;;;2.50;;
54855;SDS011;40748;53.168;5.800;2022-07-18T10:04:00;9.20;;;2.50;;
54855;SDS011;40748;53.168;5.800;2022-07-18T10:06:31;9.20;;;2.50;;
54855;SDS011;40748;53.168;5.800;2022-07-18T10:09:00;9.20;;;2.50;;
54855;SDS011;40748;53.168;5.800;2022-07-18T10:11:30;9.20;;;2.50;;
54855;SDS011;40748;53.168;5.800;2022-07-18T10:13:59;8.10;;;2.10;;
54855;SDS011;40748;53.168;5.800;2022-07-18T10:16:29;8.10;;;2.10;;
54855;SDS011;40748;53.168;5.800;2022-07-18T10:19:00;8.10;;;2.10;;
54855;SDS011;40748;53.168;5.800;2022-07-18T10:21:30;8.10;;;2.10;;
54855;SDS011;40748;53.168;5.800;2022-07-18T10:24:00;8.80;;;2.00;;
54855;SDS011;40748;53.168;5.800;2022-07-18T10:26:30;8.80;;;2.00;;
54855;SDS011;40748;53.168;5.800;2022-07-18T10:29:13;8.80;;;2.00;;
54855;SDS011;40748;53.168;5.800;2022-07-18T10:31:31;8.80;;;2.00;;
54855;SDS011;40748;53.168;5.800;2022-07-18T10:34:09;6.90;;;1.80;;
54855;SDS011;40748;53.168;5.800;2022-07-18T10:36:30;6.90;;;1.80;;
54855;SDS011;40748;53.168;5.800;2022-07-18T10:39:06;6.90;;;1.80;;
54855;SDS011;40748;53.168;5.800;2022-07-18T10:41:30;6.90;;;1.80;;
54855;SDS011;40748;53.168;5.800;2022-07-18T10:44:00;5.70;;;1.70;;
54855;SDS011;40748;53.168;5.800;2022-07-18T10:49:00;5.70;;;1.70;;
54855;SDS011;40748;53.168;5.800;2022-07-18T10:51:32;5.70;;;1.70;;
54855;SDS011;40748;53.168;5.800;2022-07-18T10:54:07;5.40;;;1.90;;
54855;SDS011;40748;53.168;5.800;2022-07-18T10:59:05;5.40;;;1.90;;
54855;SDS011;40748;53.168;5.800;2022-07-18T11:01:30;5.40;;;1.90;;
54855;SDS011;40748;53.168;5.800;2022-07-18T11:11:30;9.90;;;2.00;;
54855;SDS011;40748;53.168;5.800;2022-07-18T11:14:00;8.30;;;2.30;;
54855;SDS011;40748;53.168;5.800;2022-07-18T11:16:30;8.30;;;2.30;;
54855;SDS011;40748;53.168;5.800;2022-07-18T11:19:18;8.30;;;2.30;;
54855;SDS011;40748;53.168;5.800;2022-07-18T11:21:33;8.30;;;2.30;;
54855;SDS011;40748;53.168;5.800;2022-07-18T11:24:02;8.40;;;2.80;;
54855;SDS011;40748;53.168;5.800;2022-07-18T11:26:31;8.40;;;2.80;;
54855;SDS011;40748;53.168;5.800;2022-07-18T11:29:02;8.40;;;2.80;;
54855;SDS011;40748;53.168;5.800;2022-07-18T11:31:31;8.40;;;2.80;;
54855;SDS011;40748;53.168;5.800;2022-07-18T11:34:00;8.40;;;2.40;;
54855;SDS011;40748;53.168;5.800;2022-07-18T11:36:31;8.40;;;2.40;;
54855;SDS011;40748;53.168;5.800;2022-07-18T11:39:02;8.40;;;2.40;;
54855;SDS011;40748;53.168;5.800;2022-07-18T11:41:30;8.40;;;2.40;;
54855;SDS011;40748;53.168;5.800;2022-07-18T11:44:00;8.40;;;2.40;;
54855;SDS011;40748;53.168;5.800;2022-07-18T11:46:30;8.30;;;2.30;;
54855;SDS011;40748;53.168;5.800;2022-07-18T11:49:01;8.30;;;2.30;;
54855;SDS011;40748;53.168;5.800;2022-07-18T11:51:34;8.30;;;2.30;;
54855;SDS011;40748;53.168;5.800;2022-07-18T11:54:00;8.30;;;2.30;;
54855;SDS011;40748;53.168;5.800;2022-07-18T11:56:30;7.30;;;2.40;;
54855;SDS011;40748;53.168;5.800;2022-07-18T11:59:00;7.30;;;2.40;;
54855;SDS011;40748;53.168;5.800;2022-07-18T12:01:30;7.30;;;2.40;;
54855;SDS011;40748;53.168;5.800;2022-07-18T12:04:00;7.30;;;2.40;;
54855;SDS011;40748;53.168;5.800;2022-07-18T12:06:30;6.10;;;2.40;;
54855;SDS011;40748;53.168;5.800;2022-07-18T12:09:00;6.10;;;2.40;;
54855;SDS011;40748;53.168;5.800;2022-07-18T12:11:31;6.10;;;2.40;;
54855;SDS011;40748;53.168;5.800;2022-07-18T12:14:02;6.10;;;2.40;;
54855;SDS011;40748;53.168;5.800;2022-07-18T12:16:32;6.40;;;2.30;;
54855;SDS011;40748;53.168;5.800;2022-07-18T12:19:02;6.40;;;2.30;;
54855;SDS011;40748;53.168;5.800;2022-07-18T12:21:40;6.40;;;2.30;;
54855;SDS011;40748;53.168;5.800;2022-07-18T12:24:18;7.20;;;2.30;;
54855;SDS011;40748;53.168;5.800;2022-07-18T12:26:31;7.20;;;2.30;;
54855;SDS011;40748;53.168;5.800;2022-07-18T12:29:05;7.20;;;2.30;;
54855;SDS011;40748;53.168;5.800;2022-07-18T12:31:38;7.20;;;2.30;;
54855;SDS011;40748;53.168;5.800;2022-07-18T12:34:10;7.10;;;2.40;;
54855;SDS011;40748;53.168;5.800;2022-07-18T12:36:30;7.10;;;2.40;;
54855;SDS011;40748;53.168;5.800;2022-07-18T12:39:00;7.10;;;2.40;;
54855;SDS011;40748;53.168;5.800;2022-07-18T12:41:30;7.10;;;2.40;;
54855;SDS011;40748;53.168;5.800;2022-07-18T12:44:00;7.10;;;2.40;;
54855;SDS011;40748;53.168;5.800;2022-07-18T12:46:30;8.50;;;2.80;;
54855;SDS011;40748;53.168;5.800;2022-07-18T12:49:00;8.50;;;2.80;;
54855;SDS011;40748;53.168;5.800;2022-07-18T12:51:30;8.50;;;2.80;;
54855;SDS011;40748;53.168;5.800;2022-07-18T12:54:00;8.50;;;2.80;;
54855;SDS011;40748;53.168;5.800;2022-07-18T12:56:30;5.40;;;2.00;;
54855;SDS011;40748;53.168;5.800;2022-07-18T12:59:00;5.40;;;2.00;;
54855;SDS011;40748;53.168;5.800;2022-07-18T13:01:30;5.40;;;2.00;;
54855;SDS011;40748;53.168;5.800;2022-07-18T13:04:00;5.40;;;2.00;;
54855;SDS011;40748;53.168;5.800;2022-07-18T13:06:30;7.30;;;2.50;;
54855;SDS011;40748;53.168;5.800;2022-07-18T13:09:00;7.30;;;2.50;;
54855;SDS011;40748;53.168;5.800;2022-07-18T13:11:30;7.30;;;2.50;;
54855;SDS011;40748;53.168;5.800;2022-07-18T13:14:00;7.30;;;2.50;;
54855;SDS011;40748;53.168;5.800;2022-07-18T13:16:30;8.40;;;2.50;;
54855;SDS011;40748;53.168;5.800;2022-07-18T13:19:00;8.40;;;2.50;;
54855;SDS011;40748;53.168;5.800;2022-07-18T13:21:30;8.40;;;2.50;;
54855;SDS011;40748;53.168;5.800;2022-07-18T13:26:30;8.60;;;2.30;;
54855;SDS011;40748;53.168;5.800;2022-07-18T13:29:00;8.60;;;2.30;;
54855;SDS011;40748;53.168;5.800;2022-07-18T13:31:30;8.60;;;2.30;;
54855;SDS011;40748;53.168;5.800;2022-07-18T13:34:00;8.60;;;2.30;;
54855;SDS011;40748;53.168;5.800;2022-07-18T13:36:30;7.90;;;2.30;;
54855;SDS011;40748;53.168;5.800;2022-07-18T13:39:00;7.90;;;2.30;;
54855;SDS011;40748;53.168;5.800;2022-07-18T13:41:30;7.90;;;2.30;;
54855;SDS011;40748;53.168;5.800;2022-07-18T13:44:00;7.90;;;2.30;;
54855;SDS011;40748;53.168;5.800;2022-07-18T13:46:30;6.10;;;2.40;;
54855;SDS011;40748;53.168;5.800;2022-07-18T13:49:00;6.10;;;2.40;;
54855;SDS011;40748;53.168;5.800;2022-07-18T13:51:30;6.10;;;2.40;;
54855;SDS011;40748;53.168;5.800;2022-07-18T13:54:00;6.10;;;2.40;;
54855;SDS011;40748;53.168;5.800;2022-07-18T13:56:30;6.30;;;2.20;;
54855;SDS011;40748;53.168;5.800;2022-07-18T13:59:00;6.30;;;2.20;;
54855;SDS011;40748;53.168;5.800;2022-07-18T14:01:30;6.30;;;2.20;;
54855;SDS011;40748;53.168;5.800;2022-07-18T14:04:00;6.30;;;2.20;;
54855;SDS011;40748;53.168;5.800;2022-07-18T14:06:30;5.80;;;2.90;;
54855;SDS011;40748;53.168;5.800;2022-07-18T14:11:30;5.80;;;2.90;;
54855;SDS011;40748;53.168;5.800;2022-07-18T14:14:00;5.80;;;2.90;;
54855;SDS011;40748;53.168;5.800;2022-07-18T14:19:00;7.10;;;3.00;;
54855;SDS011;40748;53.168;5.800;2022-07-18T14:21:30;7.10;;;3.00;;
54855;SDS011;40748;53.168;5.800;2022-07-18T14:24:00;7.10;;;3.00;;
54855;SDS011;40748;53.168;5.800;2022-07-18T14:26:30;6.90;;;3.40;;
54855;SDS011;40748;53.168;5.800;2022-07-18T14:29:00;6.90;;;3.40;;
54855;SDS011;40748;53.168;5.800;2022-07-18T14:31:30;6.90;;;3.40;;
54855;SDS011;40748;53.168;5.800;2022-07-18T14:34:00;6.90;;;3.40;;
54855;SDS011;40748;53.168;5.800;2022-07-18T14:36:30;5.60;;;2.80;;
54855;SDS011;40748;53.168;5.800;2022-07-18T14:39:00;5.60;;;2.80;;
54855;SDS011;40748;53.168;5.800;2022-07-18T14:41:30;5.60;;;2.80;;
54855;SDS011;40748;53.168;5.800;2022-07-18T14:44:00;5.60;;;2.80;;
54855;SDS011;40748;53.168;5.800;2022-07-18T14:46:30;5.80;;;2.70;;
54855;SDS011;40748;53.168;5.800;2022-07-18T14:49:00;5.80;;;2.70;;
54855;SDS011;40748;53.168;5.800;2022-07-18T14:51:30;5.80;;;2.70;;
54855;SDS011;40748;53.168;5.800;2022-07-18T14:56:30;5.70;;;2.60;;
54855;SDS011;40748;53.168;5.800;2022-07-18T15:01:30;5.70;;;2.60;;
54855;SDS011;40748;53.168;5.800;2022-07-18T15:06:30;5.60;;;2.60;;
54855;SDS011;40748;53.168;5.800;2022-07-18T15:09:00;5.60;;;2.60;;
54855;SDS011;40748;53.168;5.800;2022-07-18T15:11:30;5.60;;;2.60;;
54855;SDS011;40748;53.168;5.800;2022-07-18T15:14:00;5.60;;;2.60;;
54855;SDS011;40748;53.168;5.800;2022-07-18T15:16:30;7.50;;;3.10;;
54855;SDS011;40748;53.168;5.800;2022-07-18T15:19:00;7.50;;;3.10;;
54855;SDS011;40748;53.168;5.800;2022-07-18T15:21:30;7.50;;;3.10;;
54855;SDS011;40748;53.168;5.800;2022-07-18T15:24:00;7.50;;;3.10;;
54855;SDS011;40748;53.168;5.800;2022-07-18T15:26:30;6.50;;;2.60;;
54855;SDS011;40748;53.168;5.800;2022-07-18T15:31:30;6.50;;;2.60;;
54855;SDS011;40748;53.168;5.800;2022-07-18T15:34:00;6.50;;;2.60;;
54855;SDS011;40748;53.168;5.800;2022-07-18T15:36:30;6.40;;;2.90;;
54855;SDS011;40748;53.168;5.800;2022-07-18T15:39:00;6.40;;;2.90;;
54855;SDS011;40748;53.168;5.800;2022-07-18T15:41:30;6.40;;;2.90;;
54855;SDS011;40748;53.168;5.800;2022-07-18T15:44:00;6.40;;;2.90;;
54855;SDS011;40748;53.168;5.800;2022-07-18T15:46:30;5.90;;;2.80;;
54855;SDS011;40748;53.168;5.800;2022-07-18T15:49:00;5.90;;;2.80;;
54855;SDS011;40748;53.168;5.800;2022-07-18T15:51:30;5.90;;;2.80;;
54855;SDS011;40748;53.168;5.800;2022-07-18T15:54:00;5.90;;;2.80;;
54855;SDS011;40748;53.168;5.800;2022-07-18T15:56:30;7.20;;;3.40;;
54855;SDS011;40748;53.168;5.800;2022-07-18T15:59:00;7.20;;;3.40;;
54855;SDS011;40748;53.168;5.800;2022-07-18T16:01:30;7.20;;;3.40;;
54855;SDS011;40748;53.168;5.800;2022-07-18T16:04:00;7.20;;;3.40;;
54855;SDS011;40748;53.168;5.800;2022-07-18T16:06:30;6.80;;;3.10;;